sensor_id;sensor_type;location;lat;lon;timestamp;P1;durP1;ratioP1;P2;durP2;ratioP2
55603;SDS011;41468;48.838;9.330;2024-01-15T00:00:29;17.90;;;8.80;;
55603;SDS011;41468;48.838;9.330;2024-01-15T00:02:55;19.40;;;9.07;;
55603;SDS011;41468;48.838;9.330;2024-01-15T00:05:23;21.30;;;8.80;;
55603;SDS011;41468;48.838;9.330;2024-01-15T00:07:50;20.30;;;9.50;;
55603;SDS011;41468;48.838;9.330;2024-01-15T00:10:17;17.13;;;8.70;;
55603;SDS011;41468;48.838;9.330;2024-01-15T00:12:44;17.97;;;9.40;;
55603;SDS011;41468;48.838;9.330;2024-01-15T00:15:10;17.10;;;9.97;;
55603;SDS011;41468;48.838;9.330;2024-01-15T00:17:38;18.63;;;10.27;;
55603;SDS011;41468;48.838;9.330;2024-01-15T00:20:05;24.17;;;11.03;;
55603;SDS011;41468;48.838;9.330;2024-01-15T00:22:32;22.57;;;9.93;;
55603;SDS011;41468;48.838;9.330;2024-01-15T00:25:02;21.80;;;9.97;;
55603;SDS011;41468;48.838;9.330;2024-01-15T00:27:29;18.77;;;9.33;;
55603;SDS011;41468;48.838;9.330;2024-01-15T00:29:56;25.67;;;10.27;;
55603;SDS011;41468;48.838;9.330;2024-01-15T00:32:22;16.10;;;8.67;;
55603;SDS011;41468;48.838;9.330;2024-01-15T00:34:49;21.07;;;9.57;;
55603;SDS011;41468;48.838;9.330;2024-01-15T00:37:17;17.50;;;8.77;;
55603;SDS011;41468;48.838;9.330;2024-01-15T00:39:44;22.27;;;10.20;;
55603;SDS011;41468;48.838;9.330;2024-01-15T00:42:11;16.07;;;8.70;;
55603;SDS011;41468;48.838;9.330;2024-01-15T00:44:37;21.93;;;9.73;;
55603;SDS011;41468;48.838;9.330;2024-01-15T00:47:04;20.53;;;9.33;;
55603;SDS011;41468;48.838;9.330;2024-01-15T00:49:31;22.33;;;9.83;;
55603;SDS011;41468;48.838;9.330;2024-01-15T00:51:58;20.03;;;10.33;;
55603;SDS011;41468;48.838;9.330;2024-01-15T00:54:24;16.93;;;8.87;;
55603;SDS011;41468;48.838;9.330;2024-01-15T00:56:52;18.40;;;8.80;;
55603;SDS011;41468;48.838;9.330;2024-01-15T00:59:18;18.40;;;9.17;;
55603;SDS011;41468;48.838;9.330;2024-01-15T01:01:47;22.93;;;9.73;;
55603;SDS011;41468;48.838;9.330;2024-01-15T01:14:43;20.43;;;9.33;;
55603;SDS011;41468;48.838;9.330;2024-01-15T01:17:09;16.67;;;8.80;;
55603;SDS011;41468;48.838;9.330;2024-01-15T01:19:36;19.27;;;9.43;;
55603;SDS011;41468;48.838;9.330;2024-01-15T01:22:03;15.63;;;8.50;;
55603;SDS011;41468;48.838;9.330;2024-01-15T01:24:30;19.63;;;8.60;;
55603;SDS011;41468;48.838;9.330;2024-01-15T01:26:57;19.53;;;9.13;;
55603;SDS011;41468;48.838;9.330;2024-01-15T01:29:24;19.20;;;9.30;;
55603;SDS011;41468;48.838;9.330;2024-01-15T01:31:50;17.93;;;9.00;;
55603;SDS011;41468;48.838;9.330;2024-01-15T01:34:17;22.87;;;10.20;;
55603;SDS011;41468;48.838;9.330;2024-01-15T01:36:44;21.37;;;10.23;;
55603;SDS011;41468;48.838;9.330;2024-01-15T01:39:11;22.67;;;10.20;;
55603;SDS011;41468;48.838;9.330;2024-01-15T01:41:38;26.53;;;10.37;;
55603;SDS011;41468;48.838;9.330;2024-01-15T01:44:06;22.83;;;11.60;;
55603;SDS011;41468;48.838;9.330;2024-01-15T01:46:34;23.47;;;11.30;;
55603;SDS011;41468;48.838;9.330;2024-01-15T01:49:07;23.37;;;10.53;;
55603;SDS011;41468;48.838;9.330;2024-01-15T01:51:35;19.17;;;9.93;;
55603;SDS011;41468;48.838;9.330;2024-01-15T01:54:04;22.30;;;11.53;;
55603;SDS011;41468;48.838;9.330;2024-01-15T01:56:33;23.67;;;10.67;;
55603;SDS011;41468;48.838;9.330;2024-01-15T01:59:00;23.17;;;10.67;;
55603;SDS011;41468;48.838;9.330;2024-01-15T02:01:29;25.83;;;11.63;;
55603;SDS011;41468;48.838;9.330;2024-01-15T02:03:57;19.47;;;10.00;;
55603;SDS011;41468;48.838;9.330;2024-01-15T02:06:25;20.30;;;10.90;;
55603;SDS011;41468;48.838;9.330;2024-01-15T02:08:51;15.87;;;9.33;;
55603;SDS011;41468;48.838;9.330;2024-01-15T02:11:18;20.43;;;9.17;;
55603;SDS011;41468;48.838;9.330;2024-01-15T02:13:45;18.67;;;9.13;;
55603;SDS011;41468;48.838;9.330;2024-01-15T02:16:12;15.17;;;8.03;;
55603;SDS011;41468;48.838;9.330;2024-01-15T02:18:40;18.70;;;9.80;;
55603;SDS011;41468;48.838;9.330;2024-01-15T02:21:10;16.77;;;8.47;;
55603;SDS011;41468;48.838;9.330;2024-01-15T02:23:37;16.73;;;8.43;;
55603;SDS011;41468;48.838;9.330;2024-01-15T02:26:05;15.93;;;7.57;;
55603;SDS011;41468;48.838;9.330;2024-01-15T02:28:32;15.57;;;8.00;;
55603;SDS011;41468;48.838;9.330;2024-01-15T02:30:59;14.63;;;7.40;;
55603;SDS011;41468;48.838;9.330;2024-01-15T02:33:26;15.40;;;7.87;;
55603;SDS011;41468;48.838;9.330;2024-01-15T02:35:53;12.33;;;6.43;;
55603;SDS011;41468;48.838;9.330;2024-01-15T02:38:20;14.73;;;7.27;;
55603;SDS011;41468;48.838;9.330;2024-01-15T02:40:47;14.17;;;7.10;;
55603;SDS011;41468;48.838;9.330;2024-01-15T02:43:13;15.87;;;7.80;;
55603;SDS011;41468;48.838;9.330;2024-01-15T02:45:40;15.60;;;7.37;;
55603;SDS011;41468;48.838;9.330;2024-01-15T02:48:07;16.67;;;6.70;;
55603;SDS011;41468;48.838;9.330;2024-01-15T02:50:42;12.40;;;6.33;;
55603;SDS011;41468;48.838;9.330;2024-01-15T02:53:09;13.47;;;7.03;;
55603;SDS011;41468;48.838;9.330;2024-01-15T02:55:35;12.80;;;6.47;;
55603;SDS011;41468;48.838;9.330;2024-01-15T02:58:03;10.03;;;5.23;;
55603;SDS011;41468;48.838;9.330;2024-01-15T03:00:30;11.33;;;5.80;;
55603;SDS011;41468;48.838;9.330;2024-01-15T03:02:57;10.53;;;5.47;;
55603;SDS011;41468;48.838;9.330;2024-01-15T03:05:23;10.83;;;6.03;;
55603;SDS011;41468;48.838;9.330;2024-01-15T03:07:50;10.40;;;6.10;;
55603;SDS011;41468;48.838;9.330;2024-01-15T03:10:17;10.80;;;6.30;;
55603;SDS011;41468;48.838;9.330;2024-01-15T03:12:44;10.63;;;6.13;;
55603;SDS011;41468;48.838;9.330;2024-01-15T03:15:10;10.73;;;5.80;;
55603;SDS011;41468;48.838;9.330;2024-01-15T03:17:37;12.50;;;6.23;;
55603;SDS011;41468;48.838;9.330;2024-01-15T03:30:44;9.77;;;6.60;;
55603;SDS011;41468;48.838;9.330;2024-01-15T03:33:11;9.53;;;6.03;;
55603;SDS011;41468;48.838;9.330;2024-01-15T03:35:38;13.23;;;6.37;;
55603;SDS011;41468;48.838;9.330;2024-01-15T03:38:04;13.53;;;6.47;;
55603;SDS011;41468;48.838;9.330;2024-01-15T03:40:31;12.77;;;6.17;;
55603;SDS011;41468;48.838;9.330;2024-01-15T03:42:58;9.10;;;5.53;;
55603;SDS011;41468;48.838;9.330;2024-01-15T03:45:25;10.77;;;5.90;;
55603;SDS011;41468;48.838;9.330;2024-01-15T03:48:06;8.67;;;5.10;;
55603;SDS011;41468;48.838;9.330;2024-01-15T03:50:38;11.07;;;5.97;;
55603;SDS011;41468;48.838;9.330;2024-01-15T03:53:05;9.90;;;6.03;;
55603;SDS011;41468;48.838;9.330;2024-01-15T03:55:32;12.27;;;6.00;;
55603;SDS011;41468;48.838;9.330;2024-01-15T03:58:20;12.57;;;6.33;;
55603;SDS011;41468;48.838;9.330;2024-01-15T04:00:46;9.40;;;5.13;;
55603;SDS011;41468;48.838;9.330;2024-01-15T04:03:13;9.13;;;5.60;;
55603;SDS011;41468;48.838;9.330;2024-01-15T04:05:40;10.53;;;5.73;;
55603;SDS011;41468;48.838;9.330;2024-01-15T04:08:07;8.67;;;5.43;;
55603;SDS011;41468;48.838;9.330;2024-01-15T04:10:34;11.70;;;6.00;;
55603;SDS011;41468;48.838;9.330;2024-01-15T04:13:00;11.33;;;6.10;;
55603;SDS011;41468;48.838;9.330;2024-01-15T04:15:28;13.83;;;6.60;;
55603;SDS011;41468;48.838;9.330;2024-01-15T04:17:55;13.10;;;5.80;;
55603;SDS011;41468;48.838;9.330;2024-01-15T04:20:22;9.67;;;5.43;;
55603;SDS011;41468;48.838;9.330;2024-01-15T04:22:51;11.30;;;6.40;;
55603;SDS011;41468;48.838;9.330;2024-01-15T04:25:18;10.23;;;5.93;;
55603;SDS011;41468;48.838;9.330;2024-01-15T04:27:45;14.17;;;6.63;;
55603;SDS011;41468;48.838;9.330;2024-01-15T04:40:42;10.67;;;5.60;;
55603;SDS011;41468;48.838;9.330;2024-01-15T04:43:09;10.33;;;5.93;;
55603;SDS011;41468;48.838;9.330;2024-01-15T04:45:35;10.93;;;6.23;;
55603;SDS011;41468;48.838;9.330;2024-01-15T04:48:02;12.93;;;5.57;;
55603;SDS011;41468;48.838;9.330;2024-01-15T04:50:29;11.23;;;6.27;;
55603;SDS011;41468;48.838;9.330;2024-01-15T04:52:56;10.40;;;5.30;;
55603;SDS011;41468;48.838;9.330;2024-01-15T04:55:23;9.87;;;5.60;;
55603;SDS011;41468;48.838;9.330;2024-01-15T04:57:49;10.40;;;5.43;;
55603;SDS011;41468;48.838;9.330;2024-01-15T05:00:16;9.67;;;5.50;;
55603;SDS011;41468;48.838;9.330;2024-01-15T05:02:43;11.80;;;6.07;;
55603;SDS011;41468;48.838;9.330;2024-01-15T05:05:10;9.73;;;5.67;;
55603;SDS011;41468;48.838;9.330;2024-01-15T05:07:37;14.00;;;7.00;;
55603;SDS011;41468;48.838;9.330;2024-01-15T05:10:04;12.87;;;6.53;;
55603;SDS011;41468;48.838;9.330;2024-01-15T05:12:31;10.50;;;5.97;;
55603;SDS011;41468;48.838;9.330;2024-01-15T05:14:58;10.23;;;5.93;;
55603;SDS011;41468;48.838;9.330;2024-01-15T05:17:25;10.00;;;5.63;;
55603;SDS011;41468;48.838;9.330;2024-01-15T05:19:52;10.77;;;5.80;;
55603;SDS011;41468;48.838;9.330;2024-01-15T05:22:19;11.07;;;5.20;;
55603;SDS011;41468;48.838;9.330;2024-01-15T05:24:45;9.27;;;5.03;;
55603;SDS011;41468;48.838;9.330;2024-01-15T05:27:12;10.47;;;5.20;;
55603;SDS011;41468;48.838;9.330;2024-01-15T05:29:39;10.73;;;5.57;;
55603;SDS011;41468;48.838;9.330;2024-01-15T05:32:10;7.40;;;4.70;;
55603;SDS011;41468;48.838;9.330;2024-01-15T05:34:37;12.27;;;5.30;;
55603;SDS011;41468;48.838;9.330;2024-01-15T05:37:04;8.07;;;5.10;;
55603;SDS011;41468;48.838;9.330;2024-01-15T05:39:30;7.60;;;5.07;;
55603;SDS011;41468;48.838;9.330;2024-01-15T05:41:58;9.90;;;4.57;;
55603;SDS011;41468;48.838;9.330;2024-01-15T05:44:25;11.67;;;6.30;;
55603;SDS011;41468;48.838;9.330;2024-01-15T05:46:52;10.80;;;5.77;;
55603;SDS011;41468;48.838;9.330;2024-01-15T05:49:19;11.33;;;5.23;;
55603;SDS011;41468;48.838;9.330;2024-01-15T05:51:46;12.93;;;8.70;;
55603;SDS011;41468;48.838;9.330;2024-01-15T05:54:13;11.03;;;7.07;;
55603;SDS011;41468;48.838;9.330;2024-01-15T05:56:40;10.13;;;5.33;;
55603;SDS011;41468;48.838;9.330;2024-01-15T05:59:07;9.00;;;4.87;;
55603;SDS011;41468;48.838;9.330;2024-01-15T06:01:35;6.67;;;4.50;;
55603;SDS011;41468;48.838;9.330;2024-01-15T06:04:02;7.73;;;4.67;;
55603;SDS011;41468;48.838;9.330;2024-01-15T06:06:28;9.57;;;5.03;;
55603;SDS011;41468;48.838;9.330;2024-01-15T06:08:56;11.23;;;6.80;;
55603;SDS011;41468;48.838;9.330;2024-01-15T06:11:31;9.90;;;6.13;;
55603;SDS011;41468;48.838;9.330;2024-01-15T06:13:58;11.27;;;5.43;;
55603;SDS011;41468;48.838;9.330;2024-01-15T06:16:26;6.27;;;4.70;;
55603;SDS011;41468;48.838;9.330;2024-01-15T06:18:54;7.10;;;4.30;;
55603;SDS011;41468;48.838;9.330;2024-01-15T06:21:21;8.73;;;5.07;;
55603;SDS011;41468;48.838;9.330;2024-01-15T06:23:48;10.30;;;5.10;;
55603;SDS011;41468;48.838;9.330;2024-01-15T06:26:15;6.43;;;4.50;;
55603;SDS011;41468;48.838;9.330;2024-01-15T06:28:42;8.80;;;5.10;;
55603;SDS011;41468;48.838;9.330;2024-01-15T06:31:09;10.03;;;4.50;;
55603;SDS011;41468;48.838;9.330;2024-01-15T06:33:36;8.23;;;4.93;;
55603;SDS011;41468;48.838;9.330;2024-01-15T06:36:03;7.13;;;4.83;;
55603;SDS011;41468;48.838;9.330;2024-01-15T06:38:30;8.87;;;4.67;;
55603;SDS011;41468;48.838;9.330;2024-01-15T06:40:56;7.87;;;4.43;;
55603;SDS011;41468;48.838;9.330;2024-01-15T06:43:23;32.40;;;21.43;;
55603;SDS011;41468;48.838;9.330;2024-01-15T06:45:50;11.67;;;5.90;;
55603;SDS011;41468;48.838;9.330;2024-01-15T06:48:17;9.83;;;5.13;;
55603;SDS011;41468;48.838;9.330;2024-01-15T06:50:43;9.17;;;5.30;;
55603;SDS011;41468;48.838;9.330;2024-01-15T06:53:11;9.43;;;5.17;;
55603;SDS011;41468;48.838;9.330;2024-01-15T06:55:38;8.93;;;4.63;;
55603;SDS011;41468;48.838;9.330;2024-01-15T06:58:05;5.87;;;4.47;;
55603;SDS011;41468;48.838;9.330;2024-01-15T07:00:32;10.13;;;4.43;;
55603;SDS011;41468;48.838;9.330;2024-01-15T07:02:59;8.93;;;5.20;;
55603;SDS011;41468;48.838;9.330;2024-01-15T07:05:25;7.67;;;4.40;;
55603;SDS011;41468;48.838;9.330;2024-01-15T07:07:52;9.20;;;4.87;;
55603;SDS011;41468;48.838;9.330;2024-01-15T07:10:19;7.97;;;4.77;;
55603;SDS011;41468;48.838;9.330;2024-01-15T07:12:46;7.40;;;4.57;;
55603;SDS011;41468;48.838;9.330;2024-01-15T07:15:13;7.53;;;4.73;;
55603;SDS011;41468;48.838;9.330;2024-01-15T07:17:41;8.03;;;5.03;;
55603;SDS011;41468;48.838;9.330;2024-01-15T07:20:09;6.40;;;5.17;;
55603;SDS011;41468;48.838;9.330;2024-01-15T07:22:36;8.33;;;4.97;;
55603;SDS011;41468;48.838;9.330;2024-01-15T07:25:08;8.90;;;5.40;;
55603;SDS011;41468;48.838;9.330;2024-01-15T07:27:35;7.20;;;4.70;;
55603;SDS011;41468;48.838;9.330;2024-01-15T07:30:02;6.63;;;4.70;;
55603;SDS011;41468;48.838;9.330;2024-01-15T07:32:31;8.47;;;5.00;;
55603;SDS011;41468;48.838;9.330;2024-01-15T07:34:58;10.23;;;4.43;;
55603;SDS011;41468;48.838;9.330;2024-01-15T07:37:26;9.03;;;4.73;;
55603;SDS011;41468;48.838;9.330;2024-01-15T07:39:52;8.67;;;4.63;;
55603;SDS011;41468;48.838;9.330;2024-01-15T07:42:19;9.37;;;4.77;;
55603;SDS011;41468;48.838;9.330;2024-01-15T07:44:46;10.70;;;5.37;;
55603;SDS011;41468;48.838;9.330;2024-01-15T07:47:13;8.77;;;5.20;;
55603;SDS011;41468;48.838;9.330;2024-01-15T07:49:52;11.60;;;4.77;;
55603;SDS011;41468;48.838;9.330;2024-01-15T07:52:19;6.30;;;4.97;;
55603;SDS011;41468;48.838;9.330;2024-01-15T07:54:46;11.93;;;5.43;;
55603;SDS011;41468;48.838;9.330;2024-01-15T07:57:13;8.83;;;4.97;;
55603;SDS011;41468;48.838;9.330;2024-01-15T07:59:40;8.40;;;4.40;;
55603;SDS011;41468;48.838;9.330;2024-01-15T08:02:06;7.63;;;4.60;;
55603;SDS011;41468;48.838;9.330;2024-01-15T08:04:33;6.17;;;4.43;;
55603;SDS011;41468;48.838;9.330;2024-01-15T08:07:00;6.57;;;4.27;;
55603;SDS011;41468;48.838;9.330;2024-01-15T08:09:27;8.17;;;4.87;;
55603;SDS011;41468;48.838;9.330;2024-01-15T08:11:54;9.83;;;4.70;;
55603;SDS011;41468;48.838;9.330;2024-01-15T08:14:20;6.13;;;4.10;;
55603;SDS011;41468;48.838;9.330;2024-01-15T08:16:47;4.90;;;3.93;;
55603;SDS011;41468;48.838;9.330;2024-01-15T08:19:14;7.73;;;4.70;;
55603;SDS011;41468;48.838;9.330;2024-01-15T08:21:41;6.60;;;4.30;;
55603;SDS011;41468;48.838;9.330;2024-01-15T08:24:08;9.00;;;4.47;;
55603;SDS011;41468;48.838;9.330;2024-01-15T08:26:35;10.87;;;4.50;;
55603;SDS011;41468;48.838;9.330;2024-01-15T08:29:02;7.77;;;4.27;;
55603;SDS011;41468;48.838;9.330;2024-01-15T08:31:28;8.97;;;4.23;;
55603;SDS011;41468;48.838;9.330;2024-01-15T08:33:55;5.87;;;4.17;;
55603;SDS011;41468;48.838;9.330;2024-01-15T08:36:23;8.60;;;4.60;;
55603;SDS011;41468;48.838;9.330;2024-01-15T08:38:51;9.60;;;4.33;;
55603;SDS011;41468;48.838;9.330;2024-01-15T08:41:18;7.17;;;4.50;;
55603;SDS011;41468;48.838;9.330;2024-01-15T08:43:49;6.00;;;3.73;;
55603;SDS011;41468;48.838;9.330;2024-01-15T08:46:16;7.43;;;4.50;;
55603;SDS011;41468;48.838;9.330;2024-01-15T08:48:42;6.90;;;4.70;;
55603;SDS011;41468;48.838;9.330;2024-01-15T08:51:14;6.57;;;4.73;;
55603;SDS011;41468;48.838;9.330;2024-01-15T08:53:40;6.87;;;4.77;;
55603;SDS011;41468;48.838;9.330;2024-01-15T08:56:07;8.00;;;4.50;;
55603;SDS011;41468;48.838;9.330;2024-01-15T08:58:35;8.17;;;4.23;;
55603;SDS011;41468;48.838;9.330;2024-01-15T09:01:01;8.47;;;4.27;;
55603;SDS011;41468;48.838;9.330;2024-01-15T09:03:29;6.30;;;4.40;;
55603;SDS011;41468;48.838;9.330;2024-01-15T09:05:56;8.57;;;4.57;;
55603;SDS011;41468;48.838;9.330;2024-01-15T09:08:23;7.30;;;3.93;;
55603;SDS011;41468;48.838;9.330;2024-01-15T09:10:51;7.20;;;4.13;;
55603;SDS011;41468;48.838;9.330;2024-01-15T09:13:22;5.47;;;3.87;;
55603;SDS011;41468;48.838;9.330;2024-01-15T09:15:49;8.77;;;4.20;;
55603;SDS011;41468;48.838;9.330;2024-01-15T09:18:16;10.03;;;4.33;;
55603;SDS011;41468;48.838;9.330;2024-01-15T09:20:42;13.33;;;4.63;;
55603;SDS011;41468;48.838;9.330;2024-01-15T09:23:09;6.53;;;3.87;;
55603;SDS011;41468;48.838;9.330;2024-01-15T09:25:36;5.63;;;3.80;;
55603;SDS011;41468;48.838;9.330;2024-01-15T09:28:03;5.67;;;3.90;;
55603;SDS011;41468;48.838;9.330;2024-01-15T09:30:30;7.83;;;3.67;;
55603;SDS011;41468;48.838;9.330;2024-01-15T09:32:57;4.50;;;3.70;;
55603;SDS011;41468;48.838;9.330;2024-01-15T09:35:25;4.40;;;3.27;;
55603;SDS011;41468;48.838;9.330;2024-01-15T09:37:51;7.37;;;3.87;;
55603;SDS011;41468;48.838;9.330;2024-01-15T09:40:18;9.20;;;3.90;;
55603;SDS011;41468;48.838;9.330;2024-01-15T09:42:47;5.73;;;3.30;;
55603;SDS011;41468;48.838;9.330;2024-01-15T09:45:14;6.60;;;3.50;;
55603;SDS011;41468;48.838;9.330;2024-01-15T09:47:41;4.13;;;2.97;;
55603;SDS011;41468;48.838;9.330;2024-01-15T09:50:12;4.90;;;2.90;;
55603;SDS011;41468;48.838;9.330;2024-01-15T09:52:40;5.93;;;3.50;;
55603;SDS011;41468;48.838;9.330;2024-01-15T09:55:07;4.23;;;3.00;;
55603;SDS011;41468;48.838;9.330;2024-01-15T09:57:36;5.47;;;3.43;;
55603;SDS011;41468;48.838;9.330;2024-01-15T10:00:03;5.80;;;3.57;;
55603;SDS011;41468;48.838;9.330;2024-01-15T10:02:33;7.23;;;3.30;;
55603;SDS011;41468;48.838;9.330;2024-01-15T10:05:01;4.93;;;3.47;;
55603;SDS011;41468;48.838;9.330;2024-01-15T10:07:29;4.07;;;3.30;;
55603;SDS011;41468;48.838;9.330;2024-01-15T10:09:57;6.77;;;3.80;;
55603;SDS011;41468;48.838;9.330;2024-01-15T10:12:24;5.43;;;2.90;;
55603;SDS011;41468;48.838;9.330;2024-01-15T10:14:54;5.67;;;2.90;;
55603;SDS011;41468;48.838;9.330;2024-01-15T10:17:23;4.43;;;3.07;;
55603;SDS011;41468;48.838;9.330;2024-01-15T10:19:51;7.90;;;3.20;;
55603;SDS011;41468;48.838;9.330;2024-01-15T10:22:24;5.33;;;3.20;;
55603;SDS011;41468;48.838;9.330;2024-01-15T10:24:51;5.00;;;3.40;;
55603;SDS011;41468;48.838;9.330;2024-01-15T10:27:18;4.73;;;3.33;;
55603;SDS011;41468;48.838;9.330;2024-01-15T10:29:45;4.17;;;3.27;;
55603;SDS011;41468;48.838;9.330;2024-01-15T10:32:11;6.00;;;3.47;;
55603;SDS011;41468;48.838;9.330;2024-01-15T10:34:43;6.30;;;4.60;;
55603;SDS011;41468;48.838;9.330;2024-01-15T10:37:10;7.17;;;4.17;;
55603;SDS011;41468;48.838;9.330;2024-01-15T10:39:37;3.77;;;2.80;;
55603;SDS011;41468;48.838;9.330;2024-01-15T10:42:05;4.87;;;3.30;;
55603;SDS011;41468;48.838;9.330;2024-01-15T10:44:39;7.93;;;2.93;;
55603;SDS011;41468;48.838;9.330;2024-01-15T10:47:07;5.20;;;3.07;;
55603;SDS011;41468;48.838;9.330;2024-01-15T10:49:34;5.50;;;3.37;;
55603;SDS011;41468;48.838;9.330;2024-01-15T10:52:01;7.17;;;3.53;;
55603;SDS011;41468;48.838;9.330;2024-01-15T10:54:29;6.03;;;3.10;;
55603;SDS011;41468;48.838;9.330;2024-01-15T10:56:56;5.87;;;3.67;;
55603;SDS011;41468;48.838;9.330;2024-01-15T10:59:23;5.07;;;2.70;;
55603;SDS011;41468;48.838;9.330;2024-01-15T11:01:51;7.97;;;3.90;;
55603;SDS011;41468;48.838;9.330;2024-01-15T11:04:21;4.77;;;3.10;;
55603;SDS011;41468;48.838;9.330;2024-01-15T11:06:52;12.17;;;3.50;;
55603;SDS011;41468;48.838;9.330;2024-01-15T11:09:22;5.07;;;3.17;;
55603;SDS011;41468;48.838;9.330;2024-01-15T11:11:52;4.60;;;2.70;;
55603;SDS011;41468;48.838;9.330;2024-01-15T11:14:38;6.33;;;3.43;;
55603;SDS011;41468;48.838;9.330;2024-01-15T11:17:16;3.10;;;2.67;;
55603;SDS011;41468;48.838;9.330;2024-01-15T11:19:44;3.03;;;2.73;;
55603;SDS011;41468;48.838;9.330;2024-01-15T11:25:12;4.23;;;2.70;;
55603;SDS011;41468;48.838;9.330;2024-01-15T11:30:11;6.40;;;3.00;;
55603;SDS011;41468;48.838;9.330;2024-01-15T11:32:39;6.60;;;2.47;;
55603;SDS011;41468;48.838;9.330;2024-01-15T11:35:10;5.93;;;2.90;;
55603;SDS011;41468;48.838;9.330;2024-01-15T11:37:56;4.20;;;2.90;;
55603;SDS011;41468;48.838;9.330;2024-01-15T11:42:59;3.87;;;2.60;;
55603;SDS011;41468;48.838;9.330;2024-01-15T11:45:26;3.30;;;2.90;;
55603;SDS011;41468;48.838;9.330;2024-01-15T11:50:41;5.27;;;3.10;;
55603;SDS011;41468;48.838;9.330;2024-01-15T11:53:13;4.03;;;2.83;;
55603;SDS011;41468;48.838;9.330;2024-01-15T11:55:44;6.23;;;3.07;;
55603;SDS011;41468;48.838;9.330;2024-01-15T11:58:12;4.83;;;3.30;;
55603;SDS011;41468;48.838;9.330;2024-01-15T12:00:45;4.13;;;3.30;;
55603;SDS011;41468;48.838;9.330;2024-01-15T12:03:22;6.10;;;3.30;;
55603;SDS011;41468;48.838;9.330;2024-01-15T12:05:51;4.70;;;3.67;;
55603;SDS011;41468;48.838;9.330;2024-01-15T12:08:22;4.53;;;3.40;;
55603;SDS011;41468;48.838;9.330;2024-01-15T12:10:50;4.00;;;3.50;;
55603;SDS011;41468;48.838;9.330;2024-01-15T12:13:18;6.57;;;3.80;;
55603;SDS011;41468;48.838;9.330;2024-01-15T12:15:46;6.33;;;3.60;;
55603;SDS011;41468;48.838;9.330;2024-01-15T12:18:15;5.43;;;3.30;;
55603;SDS011;41468;48.838;9.330;2024-01-15T12:20:44;5.77;;;3.90;;
55603;SDS011;41468;48.838;9.330;2024-01-15T12:23:14;5.10;;;3.73;;
55603;SDS011;41468;48.838;9.330;2024-01-15T12:25:41;5.57;;;3.60;;
55603;SDS011;41468;48.838;9.330;2024-01-15T12:28:09;5.77;;;3.67;;
55603;SDS011;41468;48.838;9.330;2024-01-15T12:30:36;9.17;;;3.37;;
55603;SDS011;41468;48.838;9.330;2024-01-15T12:33:05;4.73;;;3.43;;
55603;SDS011;41468;48.838;9.330;2024-01-15T12:35:35;3.93;;;3.30;;
55603;SDS011;41468;48.838;9.330;2024-01-15T12:38:02;6.03;;;3.33;;
55603;SDS011;41468;48.838;9.330;2024-01-15T12:40:30;4.53;;;3.27;;
55603;SDS011;41468;48.838;9.330;2024-01-15T12:42:59;8.10;;;3.10;;
55603;SDS011;41468;48.838;9.330;2024-01-15T12:45:26;4.43;;;3.47;;
55603;SDS011;41468;48.838;9.330;2024-01-15T12:47:53;5.13;;;3.13;;
55603;SDS011;41468;48.838;9.330;2024-01-15T12:50:23;5.87;;;3.50;;
55603;SDS011;41468;48.838;9.330;2024-01-15T12:52:50;4.23;;;3.30;;
55603;SDS011;41468;48.838;9.330;2024-01-15T12:55:28;4.53;;;3.40;;
55603;SDS011;41468;48.838;9.330;2024-01-15T12:57:54;8.00;;;4.80;;
55603;SDS011;41468;48.838;9.330;2024-01-15T13:00:22;7.73;;;4.20;;
55603;SDS011;41468;48.838;9.330;2024-01-15T13:02:49;6.00;;;3.50;;
55603;SDS011;41468;48.838;9.330;2024-01-15T13:05:16;3.40;;;2.93;;
55603;SDS011;41468;48.838;9.330;2024-01-15T13:07:44;5.53;;;3.50;;
55603;SDS011;41468;48.838;9.330;2024-01-15T13:10:11;6.63;;;4.03;;
55603;SDS011;41468;48.838;9.330;2024-01-15T13:12:39;5.43;;;3.70;;
55603;SDS011;41468;48.838;9.330;2024-01-15T13:15:07;4.67;;;3.43;;
55603;SDS011;41468;48.838;9.330;2024-01-15T13:17:40;4.93;;;3.40;;
55603;SDS011;41468;48.838;9.330;2024-01-15T13:20:18;7.13;;;3.60;;
55603;SDS011;41468;48.838;9.330;2024-01-15T13:22:45;4.10;;;2.90;;
55603;SDS011;41468;48.838;9.330;2024-01-15T13:25:12;5.43;;;3.43;;
55603;SDS011;41468;48.838;9.330;2024-01-15T13:27:39;4.67;;;3.47;;
55603;SDS011;41468;48.838;9.330;2024-01-15T13:30:08;4.07;;;3.10;;
55603;SDS011;41468;48.838;9.330;2024-01-15T13:32:35;3.70;;;3.13;;
55603;SDS011;41468;48.838;9.330;2024-01-15T13:35:02;4.27;;;3.50;;
55603;SDS011;41468;48.838;9.330;2024-01-15T13:37:32;5.30;;;3.10;;
55603;SDS011;41468;48.838;9.330;2024-01-15T13:39:59;4.13;;;3.17;;
55603;SDS011;41468;48.838;9.330;2024-01-15T13:42:36;3.53;;;2.70;;
55603;SDS011;41468;48.838;9.330;2024-01-15T13:45:07;2.83;;;2.47;;
55603;SDS011;41468;48.838;9.330;2024-01-15T13:47:34;5.07;;;2.90;;
55603;SDS011;41468;48.838;9.330;2024-01-15T13:50:01;3.80;;;2.53;;
55603;SDS011;41468;48.838;9.330;2024-01-15T13:52:27;2.60;;;2.40;;
55603;SDS011;41468;48.838;9.330;2024-01-15T13:54:54;5.23;;;2.87;;
55603;SDS011;41468;48.838;9.330;2024-01-15T13:57:21;4.53;;;2.40;;
55603;SDS011;41468;48.838;9.330;2024-01-15T13:59:49;6.50;;;2.60;;
55603;SDS011;41468;48.838;9.330;2024-01-15T14:02:16;3.27;;;2.40;;
55603;SDS011;41468;48.838;9.330;2024-01-15T14:04:47;5.57;;;2.70;;
55603;SDS011;41468;48.838;9.330;2024-01-15T14:07:15;2.70;;;2.50;;
55603;SDS011;41468;48.838;9.330;2024-01-15T14:09:43;3.67;;;3.27;;
55603;SDS011;41468;48.838;9.330;2024-01-15T14:12:10;3.10;;;2.70;;
55603;SDS011;41468;48.838;9.330;2024-01-15T14:14:38;2.87;;;2.63;;
55603;SDS011;41468;48.838;9.330;2024-01-15T14:17:06;2.27;;;2.17;;
55603;SDS011;41468;48.838;9.330;2024-01-15T14:19:33;3.50;;;3.10;;
55603;SDS011;41468;48.838;9.330;2024-01-15T14:22:00;3.97;;;3.10;;
55603;SDS011;41468;48.838;9.330;2024-01-15T14:24:27;3.90;;;2.90;;
55603;SDS011;41468;48.838;9.330;2024-01-15T14:26:54;2.67;;;2.47;;
55603;SDS011;41468;48.838;9.330;2024-01-15T14:29:21;4.70;;;3.37;;
55603;SDS011;41468;48.838;9.330;2024-01-15T14:31:49;3.70;;;3.13;;
55603;SDS011;41468;48.838;9.330;2024-01-15T14:34:16;4.50;;;3.43;;
55603;SDS011;41468;48.838;9.330;2024-01-15T14:36:44;3.30;;;3.00;;
55603;SDS011;41468;48.838;9.330;2024-01-15T14:39:13;3.37;;;3.03;;
55603;SDS011;41468;48.838;9.330;2024-01-15T14:41:40;6.07;;;3.13;;
55603;SDS011;41468;48.838;9.330;2024-01-15T14:44:07;3.73;;;3.23;;
55603;SDS011;41468;48.838;9.330;2024-01-15T14:46:34;3.43;;;3.13;;
55603;SDS011;41468;48.838;9.330;2024-01-15T14:49:00;6.47;;;3.87;;
55603;SDS011;41468;48.838;9.330;2024-01-15T14:51:27;5.60;;;3.63;;
55603;SDS011;41468;48.838;9.330;2024-01-15T14:53:54;6.87;;;3.73;;
55603;SDS011;41468;48.838;9.330;2024-01-15T14:56:21;4.43;;;4.03;;
55603;SDS011;41468;48.838;9.330;2024-01-15T14:58:48;6.60;;;3.67;;
55603;SDS011;41468;48.838;9.330;2024-01-15T15:01:14;4.73;;;4.00;;
55603;SDS011;41468;48.838;9.330;2024-01-15T15:03:46;5.40;;;4.30;;
55603;SDS011;41468;48.838;9.330;2024-01-15T15:06:13;4.93;;;4.03;;
55603;SDS011;41468;48.838;9.330;2024-01-15T15:08:40;5.53;;;4.50;;
55603;SDS011;41468;48.838;9.330;2024-01-15T15:11:07;6.13;;;4.50;;
55603;SDS011;41468;48.838;9.330;2024-01-15T15:13:34;5.07;;;4.10;;
55603;SDS011;41468;48.838;9.330;2024-01-15T15:16:10;7.43;;;4.83;;
55603;SDS011;41468;48.838;9.330;2024-01-15T15:18:38;5.13;;;4.10;;
55603;SDS011;41468;48.838;9.330;2024-01-15T15:21:05;5.43;;;4.80;;
55603;SDS011;41468;48.838;9.330;2024-01-15T15:23:38;6.97;;;4.50;;
55603;SDS011;41468;48.838;9.330;2024-01-15T15:26:05;5.10;;;4.60;;
55603;SDS011;41468;48.838;9.330;2024-01-15T15:28:32;4.33;;;3.90;;